Terminal Aerodrome Forecast
Issued by NWS

Home | Current Version | Previous Version | Text Only | Print | Product List | Glossary On
Versions: 1 2 3 4 5 6 7 8 9 10 11 12 13 14
000
FTUS46 KMTR 192333
TAFOAK
TAF
KOAK 192333Z 2000/2106 25009KT P6SM VCSH SCT030 BKN050
     FM200600 19015G24KT P6SM -RA BKN025 OVC050
     FM201000 15025G35KT 5SM -RA OVC025
      TEMPO 2012/2016 3SM RA OVC015
     FM201600 18020G31KT 5SM SHRA BKN015 OVC030
     FM202000 24018G27KT 6SM SHRA BKN020 OVC040
     FM210100 25019KT P6SM -SHRA BKN015 OVC040=

USA.gov is the U.S. government's official web portal to all federal, state and local government web resources and services.